sensor_id;sensor_type;location;lat;lon;timestamp;P1;durP1;ratioP1;P2;durP2;ratioP2
9522;SDS011;63165;43.016;25.784;2023-11-21T00:00:58;16.45;;;5.88;;
9522;SDS011;63165;43.016;25.784;2023-11-21T00:03:30;15.88;;;5.93;;
9522;SDS011;63165;43.016;25.784;2023-11-21T00:09:45;15.52;;;5.35;;
9522;SDS011;63165;43.016;25.784;2023-11-21T00:12:43;20.25;;;5.82;;
9522;SDS011;63165;43.016;25.784;2023-11-21T00:15:28;14.30;;;5.03;;
9522;SDS011;63165;43.016;25.784;2023-11-21T00:18:10;15.13;;;4.80;;
9522;SDS011;63165;43.016;25.784;2023-11-21T00:20:41;15.88;;;4.65;;
9522;SDS011;63165;43.016;25.784;2023-11-21T00:23:10;20.35;;;5.40;;
9522;SDS011;63165;43.016;25.784;2023-11-21T00:25:43;14.57;;;4.88;;
9522;SDS011;63165;43.016;25.784;2023-11-21T00:28:17;18.02;;;5.75;;
9522;SDS011;63165;43.016;25.784;2023-11-21T00:30:45;19.48;;;7.32;;
9522;SDS011;63165;43.016;25.784;2023-11-21T00:33:16;23.35;;;6.80;;
9522;SDS011;63165;43.016;25.784;2023-11-21T00:35:46;19.75;;;5.93;;
9522;SDS011;63165;43.016;25.784;2023-11-21T00:38:17;19.80;;;6.97;;
9522;SDS011;63165;43.016;25.784;2023-11-21T00:40:48;19.15;;;5.97;;
9522;SDS011;63165;43.016;25.784;2023-11-21T00:43:21;21.25;;;6.30;;
9522;SDS011;63165;43.016;25.784;2023-11-21T00:45:49;24.25;;;6.80;;
9522;SDS011;63165;43.016;25.784;2023-11-21T00:48:17;16.08;;;5.68;;
9522;SDS011;63165;43.016;25.784;2023-11-21T00:50:47;24.20;;;6.45;;
9522;SDS011;63165;43.016;25.784;2023-11-21T00:53:15;25.27;;;6.88;;
9522;SDS011;63165;43.016;25.784;2023-11-21T00:55:43;22.98;;;8.15;;
9522;SDS011;63165;43.016;25.784;2023-11-21T00:58:10;18.20;;;6.63;;
9522;SDS011;63165;43.016;25.784;2023-11-21T01:00:38;32.08;;;9.20;;
9522;SDS011;63165;43.016;25.784;2023-11-21T01:03:06;20.92;;;6.30;;
9522;SDS011;63165;43.016;25.784;2023-11-21T01:05:34;18.42;;;6.05;;
9522;SDS011;63165;43.016;25.784;2023-11-21T01:08:07;16.83;;;5.90;;
9522;SDS011;63165;43.016;25.784;2023-11-21T01:10:34;27.45;;;9.50;;
9522;SDS011;63165;43.016;25.784;2023-11-21T01:13:02;63.03;;;14.60;;
9522;SDS011;63165;43.016;25.784;2023-11-21T01:15:31;79.47;;;18.88;;
9522;SDS011;63165;43.016;25.784;2023-11-21T01:17:58;69.03;;;17.92;;
9522;SDS011;63165;43.016;25.784;2023-11-21T01:20:25;161.48;;;37.80;;
9522;SDS011;63165;43.016;25.784;2023-11-21T01:22:53;188.95;;;50.60;;
9522;SDS011;63165;43.016;25.784;2023-11-21T01:25:22;61.00;;;17.70;;
9522;SDS011;63165;43.016;25.784;2023-11-21T01:27:50;22.17;;;7.32;;
9522;SDS011;63165;43.016;25.784;2023-11-21T01:30:17;21.85;;;8.43;;
9522;SDS011;63165;43.016;25.784;2023-11-21T01:32:45;19.17;;;5.63;;
9522;SDS011;63165;43.016;25.784;2023-11-21T01:35:12;13.40;;;4.43;;
9522;SDS011;63165;43.016;25.784;2023-11-21T01:37:40;12.85;;;4.75;;
9522;SDS011;63165;43.016;25.784;2023-11-21T01:40:08;17.80;;;5.38;;
9522;SDS011;63165;43.016;25.784;2023-11-21T01:42:40;10.73;;;4.20;;
9522;SDS011;63165;43.016;25.784;2023-11-21T01:45:10;9.73;;;3.92;;
9522;SDS011;63165;43.016;25.784;2023-11-21T01:47:38;11.05;;;4.53;;
9522;SDS011;63165;43.016;25.784;2023-11-21T01:50:07;17.48;;;5.30;;
9522;SDS011;63165;43.016;25.784;2023-11-21T01:52:37;15.20;;;4.45;;
9522;SDS011;63165;43.016;25.784;2023-11-21T01:55:06;13.32;;;3.83;;
9522;SDS011;63165;43.016;25.784;2023-11-21T01:57:35;8.32;;;3.72;;
9522;SDS011;63165;43.016;25.784;2023-11-21T02:00:06;10.80;;;3.97;;
9522;SDS011;63165;43.016;25.784;2023-11-21T02:02:42;14.88;;;4.05;;
9522;SDS011;63165;43.016;25.784;2023-11-21T02:05:10;9.80;;;3.53;;
9522;SDS011;63165;43.016;25.784;2023-11-21T02:07:38;17.55;;;4.15;;
9522;SDS011;63165;43.016;25.784;2023-11-21T02:10:07;19.15;;;5.88;;
9522;SDS011;63165;43.016;25.784;2023-11-21T02:12:35;35.42;;;12.75;;
9522;SDS011;63165;43.016;25.784;2023-11-21T02:15:06;68.40;;;21.08;;
9522;SDS011;63165;43.016;25.784;2023-11-21T02:17:35;149.50;;;39.10;;
9522;SDS011;63165;43.016;25.784;2023-11-21T02:20:03;231.93;;;57.78;;
9522;SDS011;63165;43.016;25.784;2023-11-21T02:22:32;101.30;;;28.73;;
9522;SDS011;63165;43.016;25.784;2023-11-21T02:25:06;80.45;;;21.50;;
9522;SDS011;63165;43.016;25.784;2023-11-21T02:27:34;45.58;;;15.88;;
9522;SDS011;63165;43.016;25.784;2023-11-21T02:30:01;30.05;;;10.50;;
9522;SDS011;63165;43.016;25.784;2023-11-21T02:32:30;28.02;;;9.13;;
9522;SDS011;63165;43.016;25.784;2023-11-21T02:34:58;21.70;;;6.78;;
9522;SDS011;63165;43.016;25.784;2023-11-21T02:37:27;20.90;;;6.35;;
9522;SDS011;63165;43.016;25.784;2023-11-21T02:39:55;15.45;;;5.53;;
9522;SDS011;63165;43.016;25.784;2023-11-21T02:42:24;16.73;;;4.57;;
9522;SDS011;63165;43.016;25.784;2023-11-21T02:44:51;16.65;;;5.88;;
9522;SDS011;63165;43.016;25.784;2023-11-21T02:47:19;19.42;;;5.85;;
9522;SDS011;63165;43.016;25.784;2023-11-21T02:49:46;13.95;;;4.53;;
9522;SDS011;63165;43.016;25.784;2023-11-21T02:52:17;14.93;;;5.03;;
9522;SDS011;63165;43.016;25.784;2023-11-21T02:54:45;12.57;;;4.63;;
9522;SDS011;63165;43.016;25.784;2023-11-21T02:57:12;12.80;;;4.07;;
9522;SDS011;63165;43.016;25.784;2023-11-21T02:59:41;10.27;;;3.90;;
9522;SDS011;63165;43.016;25.784;2023-11-21T03:02:09;11.10;;;3.50;;
9522;SDS011;63165;43.016;25.784;2023-11-21T03:04:36;7.18;;;3.47;;
9522;SDS011;63165;43.016;25.784;2023-11-21T03:07:03;7.78;;;3.35;;
9522;SDS011;63165;43.016;25.784;2023-11-21T03:09:30;7.65;;;3.25;;
9522;SDS011;63165;43.016;25.784;2023-11-21T03:11:58;6.90;;;3.30;;
9522;SDS011;63165;43.016;25.784;2023-11-21T03:14:28;9.82;;;3.83;;
9522;SDS011;63165;43.016;25.784;2023-11-21T03:16:57;18.02;;;6.75;;
9522;SDS011;63165;43.016;25.784;2023-11-21T03:19:28;17.85;;;5.32;;
9522;SDS011;63165;43.016;25.784;2023-11-21T03:21:55;22.88;;;7.82;;
9522;SDS011;63165;43.016;25.784;2023-11-21T03:24:22;48.50;;;14.40;;
9522;SDS011;63165;43.016;25.784;2023-11-21T03:26:50;41.63;;;14.40;;
9522;SDS011;63165;43.016;25.784;2023-11-21T03:29:20;34.70;;;12.70;;
9522;SDS011;63165;43.016;25.784;2023-11-21T03:31:47;30.05;;;10.20;;
9522;SDS011;63165;43.016;25.784;2023-11-21T03:34:19;24.38;;;8.30;;
9522;SDS011;63165;43.016;25.784;2023-11-21T03:36:49;23.63;;;8.43;;
9522;SDS011;63165;43.016;25.784;2023-11-21T03:39:16;23.83;;;7.60;;
9522;SDS011;63165;43.016;25.784;2023-11-21T03:41:44;25.20;;;9.68;;
9522;SDS011;63165;43.016;25.784;2023-11-21T03:44:11;27.92;;;9.52;;
9522;SDS011;63165;43.016;25.784;2023-11-21T03:46:38;23.67;;;8.07;;
9522;SDS011;63165;43.016;25.784;2023-11-21T03:49:06;24.50;;;7.72;;
9522;SDS011;63165;43.016;25.784;2023-11-21T03:51:37;23.83;;;8.43;;
9522;SDS011;63165;43.016;25.784;2023-11-21T03:54:07;21.88;;;7.15;;
9522;SDS011;63165;43.016;25.784;2023-11-21T03:56:35;19.30;;;8.10;;
9522;SDS011;63165;43.016;25.784;2023-11-21T03:59:02;21.85;;;7.40;;
9522;SDS011;63165;43.016;25.784;2023-11-21T04:01:29;22.73;;;6.95;;
9522;SDS011;63165;43.016;25.784;2023-11-21T04:03:57;21.80;;;6.95;;
9522;SDS011;63165;43.016;25.784;2023-11-21T04:06:24;21.33;;;7.68;;
9522;SDS011;63165;43.016;25.784;2023-11-21T04:08:53;14.20;;;5.57;;
9522;SDS011;63165;43.016;25.784;2023-11-21T04:11:21;26.85;;;6.65;;
9522;SDS011;63165;43.016;25.784;2023-11-21T04:13:48;12.68;;;5.20;;
9522;SDS011;63165;43.016;25.784;2023-11-21T04:16:16;18.33;;;5.85;;
9522;SDS011;63165;43.016;25.784;2023-11-21T04:18:43;11.35;;;4.75;;
9522;SDS011;63165;43.016;25.784;2023-11-21T04:21:11;14.85;;;3.80;;
9522;SDS011;63165;43.016;25.784;2023-11-21T04:23:38;9.50;;;3.60;;
9522;SDS011;63165;43.016;25.784;2023-11-21T04:26:08;8.80;;;3.55;;
9522;SDS011;63165;43.016;25.784;2023-11-21T04:28:35;11.40;;;4.13;;
9522;SDS011;63165;43.016;25.784;2023-11-21T04:31:02;15.25;;;5.10;;
9522;SDS011;63165;43.016;25.784;2023-11-21T04:33:30;221.95;;;44.53;;
9522;SDS011;63165;43.016;25.784;2023-11-21T04:35:58;22.65;;;7.00;;
9522;SDS011;63165;43.016;25.784;2023-11-21T04:38:25;13.27;;;4.70;;
9522;SDS011;63165;43.016;25.784;2023-11-21T04:40:52;7.03;;;2.67;;
9522;SDS011;63165;43.016;25.784;2023-11-21T04:43:21;13.70;;;4.90;;
9522;SDS011;63165;43.016;25.784;2023-11-21T04:45:48;53.38;;;18.35;;
9522;SDS011;63165;43.016;25.784;2023-11-21T04:48:15;21.05;;;7.75;;
9522;SDS011;63165;43.016;25.784;2023-11-21T04:50:43;41.50;;;8.93;;
9522;SDS011;63165;43.016;25.784;2023-11-21T04:53:10;246.70;;;46.65;;
9522;SDS011;63165;43.016;25.784;2023-11-21T04:55:39;243.57;;;43.13;;
9522;SDS011;63165;43.016;25.784;2023-11-21T04:58:06;118.10;;;24.42;;
9522;SDS011;63165;43.016;25.784;2023-11-21T05:00:36;37.92;;;10.93;;
9522;SDS011;63165;43.016;25.784;2023-11-21T05:03:03;42.10;;;10.02;;
9522;SDS011;63165;43.016;25.784;2023-11-21T05:05:32;45.40;;;11.13;;
9522;SDS011;63165;43.016;25.784;2023-11-21T05:08:00;43.20;;;9.38;;
9522;SDS011;63165;43.016;25.784;2023-11-21T05:10:27;49.67;;;12.75;;
9522;SDS011;63165;43.016;25.784;2023-11-21T05:12:55;42.65;;;10.82;;
9522;SDS011;63165;43.016;25.784;2023-11-21T05:15:23;34.80;;;9.45;;
9522;SDS011;63165;43.016;25.784;2023-11-21T05:17:54;22.13;;;6.43;;
9522;SDS011;63165;43.016;25.784;2023-11-21T05:20:25;37.13;;;8.43;;
9522;SDS011;63165;43.016;25.784;2023-11-21T05:22:51;23.10;;;7.13;;
9522;SDS011;63165;43.016;25.784;2023-11-21T05:25:19;22.63;;;5.63;;
9522;SDS011;63165;43.016;25.784;2023-11-21T05:27:46;24.83;;;5.50;;
9522;SDS011;63165;43.016;25.784;2023-11-21T05:30:14;14.27;;;5.05;;
9522;SDS011;63165;43.016;25.784;2023-11-21T05:32:41;16.50;;;5.80;;
9522;SDS011;63165;43.016;25.784;2023-11-21T05:35:10;17.58;;;5.72;;
9522;SDS011;63165;43.016;25.784;2023-11-21T05:37:41;20.37;;;6.20;;
9522;SDS011;63165;43.016;25.784;2023-11-21T05:40:08;17.05;;;5.80;;
9522;SDS011;63165;43.016;25.784;2023-11-21T05:42:36;21.05;;;6.15;;
9522;SDS011;63165;43.016;25.784;2023-11-21T05:45:04;19.40;;;7.03;;
9522;SDS011;63165;43.016;25.784;2023-11-21T05:47:36;18.13;;;6.82;;
9522;SDS011;63165;43.016;25.784;2023-11-21T05:50:05;13.13;;;5.90;;
9522;SDS011;63165;43.016;25.784;2023-11-21T05:52:36;40.78;;;12.93;;
9522;SDS011;63165;43.016;25.784;2023-11-21T05:55:04;60.13;;;17.88;;
9522;SDS011;63165;43.016;25.784;2023-11-21T05:57:32;45.42;;;14.77;;
9522;SDS011;63165;43.016;25.784;2023-11-21T06:00:02;94.68;;;26.73;;
9522;SDS011;63165;43.016;25.784;2023-11-21T06:02:36;118.28;;;33.20;;
9522;SDS011;63165;43.016;25.784;2023-11-21T06:05:04;120.35;;;37.17;;
9522;SDS011;63165;43.016;25.784;2023-11-21T06:07:35;79.10;;;24.98;;
9522;SDS011;63165;43.016;25.784;2023-11-21T06:10:05;65.65;;;18.90;;
9522;SDS011;63165;43.016;25.784;2023-11-21T06:12:35;88.47;;;27.02;;
9522;SDS011;63165;43.016;25.784;2023-11-21T06:15:03;77.65;;;24.15;;
9522;SDS011;63165;43.016;25.784;2023-11-21T06:17:36;90.03;;;27.08;;
9522;SDS011;63165;43.016;25.784;2023-11-21T06:20:05;88.35;;;28.80;;
9522;SDS011;63165;43.016;25.784;2023-11-21T06:22:38;120.43;;;33.63;;
9522;SDS011;63165;43.016;25.784;2023-11-21T06:25:07;135.98;;;36.42;;
9522;SDS011;63165;43.016;25.784;2023-11-21T06:27:37;141.23;;;37.97;;
9522;SDS011;63165;43.016;25.784;2023-11-21T06:30:06;171.63;;;43.20;;
9522;SDS011;63165;43.016;25.784;2023-11-21T06:32:37;194.57;;;52.33;;
9522;SDS011;63165;43.016;25.784;2023-11-21T06:35:07;146.07;;;43.08;;
9522;SDS011;63165;43.016;25.784;2023-11-21T06:37:39;153.30;;;42.60;;
9522;SDS011;63165;43.016;25.784;2023-11-21T06:40:08;154.60;;;42.95;;
9522;SDS011;63165;43.016;25.784;2023-11-21T06:42:40;167.45;;;45.15;;
9522;SDS011;63165;43.016;25.784;2023-11-21T06:45:10;165.07;;;48.03;;
9522;SDS011;63165;43.016;25.784;2023-11-21T06:47:40;169.23;;;43.67;;
9522;SDS011;63165;43.016;25.784;2023-11-21T06:50:08;145.75;;;39.42;;
9522;SDS011;63165;43.016;25.784;2023-11-21T06:52:36;120.63;;;35.22;;
9522;SDS011;63165;43.016;25.784;2023-11-21T06:55:27;137.63;;;38.93;;
9522;SDS011;63165;43.016;25.784;2023-11-21T07:22:18;43.20;;;12.63;;
9522;SDS011;63165;43.016;25.784;2023-11-21T07:24:50;27.15;;;9.18;;
9522;SDS011;63165;43.016;25.784;2023-11-21T07:27:18;27.60;;;8.25;;
9522;SDS011;63165;43.016;25.784;2023-11-21T07:29:46;30.10;;;9.27;;
9522;SDS011;63165;43.016;25.784;2023-11-21T07:32:14;29.58;;;9.52;;
9522;SDS011;63165;43.016;25.784;2023-11-21T07:34:41;27.92;;;9.55;;
9522;SDS011;63165;43.016;25.784;2023-11-21T07:37:08;31.70;;;10.85;;
9522;SDS011;63165;43.016;25.784;2023-11-21T07:42:36;63.03;;;17.52;;
9522;SDS011;63165;43.016;25.784;2023-11-21T07:45:04;75.63;;;20.77;;
9522;SDS011;63165;43.016;25.784;2023-11-21T07:47:33;62.78;;;17.55;;
9522;SDS011;63165;43.016;25.784;2023-11-21T07:50:00;64.82;;;19.17;;
9522;SDS011;63165;43.016;25.784;2023-11-21T07:52:43;78.90;;;23.10;;
9522;SDS011;63165;43.016;25.784;2023-11-21T07:55:10;89.30;;;27.65;;
9522;SDS011;63165;43.016;25.784;2023-11-21T07:57:40;148.35;;;39.08;;
9522;SDS011;63165;43.016;25.784;2023-11-21T08:00:08;269.70;;;77.28;;
9522;SDS011;63165;43.016;25.784;2023-11-21T08:02:37;122.75;;;33.90;;
9522;SDS011;63165;43.016;25.784;2023-11-21T08:05:07;58.17;;;16.48;;
9522;SDS011;63165;43.016;25.784;2023-11-21T08:07:36;66.00;;;19.48;;
9522;SDS011;63165;43.016;25.784;2023-11-21T08:10:05;50.67;;;16.48;;
9522;SDS011;63165;43.016;25.784;2023-11-21T08:12:37;50.50;;;16.55;;
9522;SDS011;63165;43.016;25.784;2023-11-21T08:15:09;51.55;;;16.30;;
9522;SDS011;63165;43.016;25.784;2023-11-21T08:17:37;20.10;;;8.30;;
9522;SDS011;63165;43.016;25.784;2023-11-21T08:20:24;41.58;;;11.73;;
9522;SDS011;63165;43.016;25.784;2023-11-21T08:23:00;41.15;;;13.48;;
9522;SDS011;63165;43.016;25.784;2023-11-21T08:25:28;19.00;;;5.47;;
9522;SDS011;63165;43.016;25.784;2023-11-21T08:27:55;40.40;;;10.95;;
9522;SDS011;63165;43.016;25.784;2023-11-21T08:30:24;21.35;;;6.63;;
9522;SDS011;63165;43.016;25.784;2023-11-21T08:32:55;34.25;;;12.45;;
9522;SDS011;63165;43.016;25.784;2023-11-21T08:35:23;71.13;;;19.73;;
9522;SDS011;63165;43.016;25.784;2023-11-21T08:37:51;76.97;;;23.17;;
9522;SDS011;63165;43.016;25.784;2023-11-21T08:40:20;61.88;;;18.88;;
9522;SDS011;63165;43.016;25.784;2023-11-21T08:42:47;126.05;;;36.58;;
9522;SDS011;63165;43.016;25.784;2023-11-21T08:45:17;86.28;;;25.98;;
9522;SDS011;63165;43.016;25.784;2023-11-21T08:47:46;39.40;;;13.35;;
9522;SDS011;63165;43.016;25.784;2023-11-21T08:50:13;41.78;;;14.27;;
9522;SDS011;63165;43.016;25.784;2023-11-21T08:52:41;36.40;;;11.57;;
9522;SDS011;63165;43.016;25.784;2023-11-21T08:55:11;37.90;;;11.70;;
9522;SDS011;63165;43.016;25.784;2023-11-21T08:57:39;32.10;;;11.73;;
9522;SDS011;63165;43.016;25.784;2023-11-21T09:00:07;17.67;;;5.47;;
9522;SDS011;63165;43.016;25.784;2023-11-21T09:02:37;14.00;;;5.10;;
9522;SDS011;63165;43.016;25.784;2023-11-21T09:05:06;13.85;;;6.07;;
9522;SDS011;63165;43.016;25.784;2023-11-21T09:07:34;24.23;;;8.70;;
9522;SDS011;63165;43.016;25.784;2023-11-21T09:10:02;24.65;;;7.32;;
9522;SDS011;63165;43.016;25.784;2023-11-21T09:12:29;19.45;;;6.00;;
9522;SDS011;63165;43.016;25.784;2023-11-21T09:14:57;22.33;;;7.93;;
9522;SDS011;63165;43.016;25.784;2023-11-21T09:17:25;21.65;;;7.60;;
9522;SDS011;63165;43.016;25.784;2023-11-21T09:19:52;15.65;;;5.05;;
9522;SDS011;63165;43.016;25.784;2023-11-21T09:22:21;12.57;;;4.10;;
9522;SDS011;63165;43.016;25.784;2023-11-21T09:24:50;21.65;;;6.15;;
9522;SDS011;63165;43.016;25.784;2023-11-21T09:27:17;12.32;;;3.45;;
9522;SDS011;63165;43.016;25.784;2023-11-21T09:29:46;11.38;;;2.90;;
9522;SDS011;63165;43.016;25.784;2023-11-21T09:32:14;8.32;;;2.90;;
9522;SDS011;63165;43.016;25.784;2023-11-21T09:34:43;10.68;;;3.78;;
9522;SDS011;63165;43.016;25.784;2023-11-21T09:37:11;5.47;;;2.97;;
9522;SDS011;63165;43.016;25.784;2023-11-21T09:39:40;8.82;;;3.08;;
9522;SDS011;63165;43.016;25.784;2023-11-21T09:42:09;10.35;;;3.40;;
9522;SDS011;63165;43.016;25.784;2023-11-21T09:44:42;11.82;;;3.67;;
9522;SDS011;63165;43.016;25.784;2023-11-21T09:47:14;35.10;;;9.15;;
9522;SDS011;63165;43.016;25.784;2023-11-21T09:49:43;17.00;;;5.38;;
9522;SDS011;63165;43.016;25.784;2023-11-21T09:52:18;14.25;;;4.50;;
9522;SDS011;63165;43.016;25.784;2023-11-21T09:54:52;10.55;;;3.72;;
9522;SDS011;63165;43.016;25.784;2023-11-21T09:57:22;16.92;;;4.55;;
9522;SDS011;63165;43.016;25.784;2023-11-21T09:59:51;8.38;;;2.67;;
9522;SDS011;63165;43.016;25.784;2023-11-21T10:02:22;7.45;;;3.00;;
9522;SDS011;63165;43.016;25.784;2023-11-21T10:04:53;7.47;;;2.90;;
9522;SDS011;63165;43.016;25.784;2023-11-21T10:07:21;10.75;;;3.00;;
9522;SDS011;63165;43.016;25.784;2023-11-21T10:09:50;13.50;;;3.80;;
9522;SDS011;63165;43.016;25.784;2023-11-21T10:12:20;12.70;;;3.42;;
9522;SDS011;63165;43.016;25.784;2023-11-21T10:14:51;12.43;;;3.33;;
9522;SDS011;63165;43.016;25.784;2023-11-21T10:17:21;8.27;;;2.70;;
9522;SDS011;63165;43.016;25.784;2023-11-21T10:19:55;8.88;;;2.50;;
9522;SDS011;63165;43.016;25.784;2023-11-21T10:22:24;8.55;;;3.30;;
9522;SDS011;63165;43.016;25.784;2023-11-21T10:24:53;10.55;;;2.85;;
9522;SDS011;63165;43.016;25.784;2023-11-21T10:27:20;9.35;;;3.90;;
9522;SDS011;63165;43.016;25.784;2023-11-21T10:29:48;5.88;;;2.15;;
9522;SDS011;63165;43.016;25.784;2023-11-21T10:32:18;8.85;;;3.20;;
9522;SDS011;63165;43.016;25.784;2023-11-21T10:34:55;30.23;;;9.07;;
9522;SDS011;63165;43.016;25.784;2023-11-21T10:37:24;8.27;;;3.10;;
9522;SDS011;63165;43.016;25.784;2023-11-21T10:39:58;7.88;;;2.03;;
9522;SDS011;63165;43.016;25.784;2023-11-21T10:42:26;4.85;;;1.75;;
9522;SDS011;63165;43.016;25.784;2023-11-21T10:48:06;14.30;;;5.72;;
9522;SDS011;63165;43.016;25.784;2023-11-21T10:50:42;19.50;;;2.85;;
9522;SDS011;63165;43.016;25.784;2023-11-21T10:54:01;7.38;;;2.60;;
9522;SDS011;63165;43.016;25.784;2023-11-21T10:59:46;7.63;;;1.55;;
9522;SDS011;63165;43.016;25.784;2023-11-21T11:02:23;3.10;;;1.40;;
9522;SDS011;63165;43.016;25.784;2023-11-21T11:04:53;2.38;;;0.95;;
9522;SDS011;63165;43.016;25.784;2023-11-21T11:07:25;4.85;;;1.23;;
9522;SDS011;63165;43.016;25.784;2023-11-21T11:09:59;2.25;;;1.30;;
9522;SDS011;63165;43.016;25.784;2023-11-21T11:12:34;2.72;;;1.13;;
9522;SDS011;63165;43.016;25.784;2023-11-21T11:15:03;2.53;;;1.10;;
9522;SDS011;63165;43.016;25.784;2023-11-21T11:17:34;3.33;;;1.27;;
9522;SDS011;63165;43.016;25.784;2023-11-21T11:20:04;3.25;;;1.13;;
9522;SDS011;63165;43.016;25.784;2023-11-21T11:22:37;2.00;;;1.10;;
9522;SDS011;63165;43.016;25.784;2023-11-21T11:25:17;1.73;;;1.00;;
9522;SDS011;63165;43.016;25.784;2023-11-21T11:28:00;1.52;;;1.08;;
9522;SDS011;63165;43.016;25.784;2023-11-21T11:30:37;3.80;;;1.10;;
9522;SDS011;63165;43.016;25.784;2023-11-21T11:33:17;4.68;;;1.50;;
9522;SDS011;63165;43.016;25.784;2023-11-21T11:35:52;3.45;;;0.90;;
9522;SDS011;63165;43.016;25.784;2023-11-21T11:38:31;3.60;;;1.25;;
9522;SDS011;63165;43.016;25.784;2023-11-21T11:41:01;3.40;;;1.20;;
9522;SDS011;63165;43.016;25.784;2023-11-21T11:43:31;5.15;;;1.52;;
9522;SDS011;63165;43.016;25.784;2023-11-21T11:46:09;22.45;;;4.72;;
9522;SDS011;63165;43.016;25.784;2023-11-21T11:48:38;38.50;;;9.07;;
9522;SDS011;63165;43.016;25.784;2023-11-21T11:51:06;12.23;;;3.58;;
9522;SDS011;63165;43.016;25.784;2023-11-21T11:53:40;15.40;;;3.22;;
9522;SDS011;63165;43.016;25.784;2023-11-21T11:56:24;6.65;;;2.10;;
9522;SDS011;63165;43.016;25.784;2023-11-21T11:58:58;39.00;;;15.98;;
9522;SDS011;63165;43.016;25.784;2023-11-21T12:01:28;6.90;;;2.63;;
9522;SDS011;63165;43.016;25.784;2023-11-21T12:06:56;50.28;;;17.80;;
9522;SDS011;63165;43.016;25.784;2023-11-21T12:09:28;4.95;;;1.65;;
9522;SDS011;63165;43.016;25.784;2023-11-21T12:11:57;7.63;;;3.20;;
9522;SDS011;63165;43.016;25.784;2023-11-21T12:14:27;11.43;;;5.68;;
9522;SDS011;63165;43.016;25.784;2023-11-21T12:16:55;7.53;;;3.47;;
9522;SDS011;63165;43.016;25.784;2023-11-21T12:19:22;4.97;;;1.45;;
9522;SDS011;63165;43.016;25.784;2023-11-21T12:21:50;4.40;;;1.80;;
9522;SDS011;63165;43.016;25.784;2023-11-21T12:24:18;16.67;;;6.40;;
9522;SDS011;63165;43.016;25.784;2023-11-21T12:26:45;4.90;;;1.80;;
9522;SDS011;63165;43.016;25.784;2023-11-21T12:29:13;4.85;;;2.15;;
9522;SDS011;63165;43.016;25.784;2023-11-21T12:31:43;9.25;;;4.45;;
9522;SDS011;63165;43.016;25.784;2023-11-21T12:34:11;5.57;;;2.90;;
9522;SDS011;63165;43.016;25.784;2023-11-21T12:36:39;8.98;;;3.65;;
9522;SDS011;63165;43.016;25.784;2023-11-21T12:39:06;38.65;;;16.40;;
9522;SDS011;63165;43.016;25.784;2023-11-21T12:41:36;11.98;;;5.90;;
9522;SDS011;63165;43.016;25.784;2023-11-21T12:44:03;12.52;;;5.80;;
9522;SDS011;63165;43.016;25.784;2023-11-21T12:46:36;5.75;;;2.05;;
9522;SDS011;63165;43.016;25.784;2023-11-21T12:49:12;6.45;;;3.30;;
9522;SDS011;63165;43.016;25.784;2023-11-21T12:51:59;19.10;;;4.05;;
9522;SDS011;63165;43.016;25.784;2023-11-21T12:54:26;17.73;;;6.63;;
9522;SDS011;63165;43.016;25.784;2023-11-21T12:56:56;29.92;;;12.88;;
9522;SDS011;63165;43.016;25.784;2023-11-21T12:59:27;15.20;;;4.07;;
9522;SDS011;63165;43.016;25.784;2023-11-21T13:01:57;12.63;;;3.05;;
9522;SDS011;63165;43.016;25.784;2023-11-21T13:04:31;7.82;;;3.45;;
9522;SDS011;63165;43.016;25.784;2023-11-21T13:07:03;11.07;;;3.35;;
9522;SDS011;63165;43.016;25.784;2023-11-21T13:09:35;14.63;;;4.50;;
9522;SDS011;63165;43.016;25.784;2023-11-21T13:12:03;14.88;;;4.60;;
9522;SDS011;63165;43.016;25.784;2023-11-21T13:14:31;4.43;;;2.10;;
9522;SDS011;63165;43.016;25.784;2023-11-21T13:17:03;5.53;;;1.95;;
9522;SDS011;63165;43.016;25.784;2023-11-21T13:19:30;4.07;;;2.00;;
9522;SDS011;63165;43.016;25.784;2023-11-21T13:21:58;3.67;;;1.85;;
9522;SDS011;63165;43.016;25.784;2023-11-21T13:24:27;8.25;;;3.10;;
9522;SDS011;63165;43.016;25.784;2023-11-21T13:29:30;5.57;;;2.47;;
9522;SDS011;63165;43.016;25.784;2023-11-21T13:31:57;4.88;;;1.77;;
9522;SDS011;63165;43.016;25.784;2023-11-21T13:34:34;4.68;;;1.90;;
9522;SDS011;63165;43.016;25.784;2023-11-21T13:37:10;6.35;;;2.10;;
9522;SDS011;63165;43.016;25.784;2023-11-21T13:40:04;4.85;;;2.13;;
9522;SDS011;63165;43.016;25.784;2023-11-21T13:42:40;5.38;;;2.47;;
9522;SDS011;63165;43.016;25.784;2023-11-21T14:06:26;10.13;;;2.80;;
9522;SDS011;63165;43.016;25.784;2023-11-21T14:09:01;8.85;;;2.97;;
9522;SDS011;63165;43.016;25.784;2023-11-21T14:11:35;8.77;;;3.33;;
9522;SDS011;63165;43.016;25.784;2023-11-21T14:22:44;21.65;;;3.85;;
9522;SDS011;63165;43.016;25.784;2023-11-21T14:25:23;5.60;;;2.45;;
9522;SDS011;63165;43.016;25.784;2023-11-21T14:27:53;7.68;;;2.60;;
9522;SDS011;63165;43.016;25.784;2023-11-21T14:30:27;12.68;;;4.38;;
9522;SDS011;63165;43.016;25.784;2023-11-21T14:33:01;38.70;;;14.48;;
9522;SDS011;63165;43.016;25.784;2023-11-21T14:35:29;32.30;;;13.15;;
9522;SDS011;63165;43.016;25.784;2023-11-21T14:38:00;26.77;;;10.73;;
9522;SDS011;63165;43.016;25.784;2023-11-21T14:40:30;27.92;;;9.48;;
9522;SDS011;63165;43.016;25.784;2023-11-21T14:43:01;25.00;;;7.10;;
9522;SDS011;63165;43.016;25.784;2023-11-21T15:05:54;18.50;;;6.50;;
9522;SDS011;63165;43.016;25.784;2023-11-21T15:08:41;21.85;;;6.50;;
9522;SDS011;63165;43.016;25.784;2023-11-21T15:14:09;17.02;;;7.22;;
9522;SDS011;63165;43.016;25.784;2023-11-21T15:24:41;47.97;;;19.67;;
9522;SDS011;63165;43.016;25.784;2023-11-21T15:27:21;96.93;;;30.70;;
9522;SDS011;63165;43.016;25.784;2023-11-21T15:30:33;32.70;;;10.38;;
9522;SDS011;63165;43.016;25.784;2023-11-21T15:33:05;37.97;;;15.07;;
9522;SDS011;63165;43.016;25.784;2023-11-21T15:35:34;38.50;;;14.10;;
9522;SDS011;63165;43.016;25.784;2023-11-21T15:38:04;32.03;;;11.95;;
9522;SDS011;63165;43.016;25.784;2023-11-21T15:43:51;20.38;;;7.25;;
9522;SDS011;63165;43.016;25.784;2023-11-21T15:46:20;24.17;;;8.00;;
9522;SDS011;63165;43.016;25.784;2023-11-21T15:48:49;42.33;;;16.58;;
9522;SDS011;63165;43.016;25.784;2023-11-21T15:51:39;41.70;;;15.18;;
9522;SDS011;63165;43.016;25.784;2023-11-21T15:54:30;42.53;;;15.10;;
9522;SDS011;63165;43.016;25.784;2023-11-21T16:01:22;52.15;;;17.88;;
9522;SDS011;63165;43.016;25.784;2023-11-21T16:06:28;48.53;;;15.63;;
9522;SDS011;63165;43.016;25.784;2023-11-21T16:09:14;31.85;;;12.27;;
9522;SDS011;63165;43.016;25.784;2023-11-21T16:11:47;53.25;;;17.95;;
9522;SDS011;63165;43.016;25.784;2023-11-21T16:14:27;78.63;;;28.20;;
9522;SDS011;63165;43.016;25.784;2023-11-21T16:20:11;59.97;;;23.65;;
9522;SDS011;63165;43.016;25.784;2023-11-21T16:22:51;43.63;;;16.48;;
9522;SDS011;63165;43.016;25.784;2023-11-21T16:25:35;41.25;;;16.80;;
9522;SDS011;63165;43.016;25.784;2023-11-21T16:28:08;43.40;;;17.85;;
9522;SDS011;63165;43.016;25.784;2023-11-21T17:14:16;23.70;;;9.55;;
9522;SDS011;63165;43.016;25.784;2023-11-21T17:16:46;29.73;;;10.88;;
9522;SDS011;63165;43.016;25.784;2023-11-21T17:19:14;32.22;;;10.95;;
9522;SDS011;63165;43.016;25.784;2023-11-21T17:21:49;36.40;;;13.65;;
9522;SDS011;63165;43.016;25.784;2023-11-21T17:27:41;34.85;;;12.13;;
9522;SDS011;63165;43.016;25.784;2023-11-21T17:35:57;92.55;;;29.67;;
9522;SDS011;63165;43.016;25.784;2023-11-21T17:46:21;68.20;;;22.40;;
9522;SDS011;63165;43.016;25.784;2023-11-21T17:48:49;65.32;;;20.05;;